Flight Track Log - Related Links

Times and Time Zones

All times are in EST time to prevent confusion due to time zone crossing. See the N6711L flight status page for this flight to view local times or setup timezone preferences in your user account.

Time Position Orientation Groundspeed Altitude Reporting Facility
EST Latitude Longitude Course Direction KTS MPH feet Rate Location/Type
Fri 08:34:00 AM 26.4150 -81.8114 355° North  Level Estimated
Fri 08:35:00 AM 26.4590 -81.8149 356° North  Level FlightAware
Fri 08:36:00 AM 26.5030 -81.8184 356° North  Level FlightAware
Fri 08:37:00 AM 26.5469 -81.8220 356° North  Level FlightAware
Fri 08:38:00 AM 26.5909 -81.8255 356° North  Level FlightAware
Fri 08:39:00 AM 26.6349 -81.8290 356° North  Level FlightAware
Fri 08:40:00 AM 26.6788 -81.8326 356° North  Level FlightAware
Fri 08:40:47 AM 26.5594 -81.8356 356° North 178 205 8,000  Level Miami Center
Fri 08:41:00 AM 26.7228 -81.8361 356° North  Level FlightAware
Fri 08:41:47 AM 26.6072 -81.8422 353° North 192 221 8,100  Level Miami Center
Fri 08:42:00 AM 26.7668 -81.8397 356° North  Level FlightAware
Fri 08:42:47 AM 26.6569 -81.8492 353° North 187 215 8,100  Level Miami Center
Fri 08:43:00 AM 26.8107 -81.8432 356° North  Level FlightAware
Fri 08:43:47 AM 26.7050 -81.8511 358° North 177 204 8,100  Level Miami Center
Fri 08:44:00 AM 26.8545 -81.8496 354° North  Level Estimated
Fri 08:44:47 AM 26.7569 -81.8603 351° North 177 204 8,100  Level Miami Center
Fri 08:45:00 AM 26.8984 -81.8533 356° North  Level FlightAware
Fri 08:45:47 AM 26.8069 -81.8647 355° North 177 204 8,100  Level Miami Center
Fri 08:46:47 AM 26.8525 -81.8714 353° North 177 204 8,100  Level Miami Center
Fri 08:47:47 AM 26.9025 -81.8783 353° North 177 204 8,100  Level Miami Center
Fri 08:48:47 AM 26.9503 -81.8825 356° North 177 204 8,100  Level Miami Center
Fri 08:49:47 AM 27.0000 -81.8894 353° North 172 198 8,100 50 Level Miami Center
Fri 08:50:47 AM 27.0478 -81.8961 353° North 177 204 8,200 50 Climbing Miami Center
Fri 08:51:47 AM 27.0978 -81.9031 353° North 177 204 8,200  Level Miami Center
Fri 08:52:47 AM 27.1475 -81.9097 353° North 177 204 8,200  Level Miami Center
Fri 08:53:47 AM 27.1975 -81.9142 355° North 177 204 8,200 -50 Level Miami Center
Fri 08:54:47 AM 27.2472 -81.9211 353° North 177 204 8,100  Descending Miami Center
Fri 08:55:47 AM 27.2972 -81.9281 353° North 177 204 8,200 50 Climbing Miami Center
Fri 08:56:47 AM 27.3469 -81.9350 353° North 177 204 8,200  Level Miami Center
Fri 08:57:47 AM 27.3969 -81.9394 355° North 177 204 8,200  Level Miami Center
Fri 08:58:47 AM 27.4469 -81.9464 353° North 177 204 8,200 50 Level Miami Center
Fri 08:59:47 AM 27.4967 -81.9533 353° North 177 204 8,300 50 Climbing Miami Center
Fri 09:00:47 AM 27.5447 -81.9531 360° North 177 204 8,300 -50 Level Miami Center
Fri 09:01:47 AM 27.5944 -81.9622 351° North 177 204 8,200  Descending Miami Center
Fri 09:02:47 AM 27.6486 -81.9669 356° North 177 204 8,300 -50 Climbing Miami Center
Fri 09:03:47 AM 27.6983 -81.9739 353° North 183 211 8,100 -100 Descending Miami Center
Fri 09:04:47 AM 27.7481 -81.9808 353° North 178 205 8,100  Level Miami Center
Fri 09:05:47 AM 27.7897 -81.9850 355° North 178 205 8,100  Level Miami Center
Fri 09:06:47 AM 27.8478 -81.9969 350° North 178 205 8,100  Level Miami Center
Fri 09:07:47 AM 27.8975 -82.0039 353° North 178 205 8,100  Level Miami Center
Fri 09:08:47 AM 27.9456 -82.0086 355° North 178 205 8,100  Level Miami Center
Fri 09:09:47 AM 27.9931 -82.0153 353° North 178 205 8,100 -50 Level Miami Center
Fri 09:10:47 AM 28.0408 -82.0247 350° North 178 205 8,000 -46 Descending Miami Center
Fri 09:11:57 AM 28.1000 -82.0333 353° North 175 201 8,000  Level Tampa TRACON
Fri 09:12:57 AM 28.1500 -82.0500 344° North 177 204 8,000  Level Tampa TRACON
Fri 09:13:57 AM 28.2000 -82.0500 360° North 176 203 8,000  Level Tampa TRACON
Fri 09:14:57 AM 28.2500 -82.0667 344° North 175 201 8,000 50 Level Tampa TRACON
Fri 09:15:57 AM 28.3000 -82.0667 360° North 177 204 8,100  Climbing Tampa TRACON
Fri 09:16:57 AM 28.3500 -82.0833 344° North 178 205 8,000  Descending Tampa TRACON
Fri 09:17:57 AM 28.3833 -82.0833 360° North 177 204 8,100 41 Climbing Tampa TRACON
Fri 09:19:25 AM 28.4542 -82.0992 349° North 177 204 8,100 40 Level Jacksonville Center
Fri 09:20:26 AM 28.5106 -82.1036 356° North 180 207 8,200  Climbing Jacksonville Center
Fri 09:21:27 AM 28.5608 -82.1172 347° North 179 206 8,100 -49 Descending Jacksonville Center
Fri 09:22:28 AM 28.6089 -82.1239 353° North 178 205 8,100  Level Jacksonville Center
Fri 09:23:35 AM 28.6653 -82.1331 352° North 176 203 8,100 49 Level Jacksonville Center
Fri 09:24:30 AM 28.7092 -82.1375 355° North 177 204 8,200  Climbing Jacksonville Center
Fri 09:25:31 AM 28.7592 -82.1467 351° North 177 204 8,100  Descending Jacksonville Center
Fri 09:26:33 AM 28.8072 -82.1533 353° North 177 204 8,200 49 Climbing Jacksonville Center
Fri 09:27:34 AM 28.8617 -82.1600 354° North 177 204 8,200  Level Jacksonville Center
Fri 09:28:35 AM 28.9097 -82.1644 355° North 177 204 8,200 -49 Level Jacksonville Center
Fri 09:29:36 AM 28.9578 -82.1758 348° North 177 204 8,100  Descending Jacksonville Center
Fri 09:30:37 AM 29.0078 -82.1803 356° North 178 205 8,200 49 Climbing Jacksonville Center
Fri 09:31:38 AM 29.0600 -82.1869 354° North 178 205 8,200 -344 Level Jacksonville Center
Fri 09:32:39 AM 29.1144 -82.1961 352° North 187 215 7,500 -609 Descending Jacksonville Center
Fri 09:33:46 AM 29.1728 -82.2053 352° North 202 232 6,900 -639 Descending Jacksonville Center
Fri 09:34:41 AM 29.2231 -82.2097 356° North 192 221 6,200 -436 Descending Jacksonville Center
Fri 09:35:36 AM 29.2669 -82.2142 355° North 178 205 6,100 -492 Descending Jacksonville Center
Fri 09:36:43 AM 29.3169 -82.2447 332° Northwest 181 208 5,200 -797 Descending Jacksonville Center
Fri 09:37:44 AM 29.3631 -82.2706 334° Northwest 184 212 4,400 -872 Descending Jacksonville Center
Fri 09:38:40 AM 29.4069 -82.2989 331° Northwest 197 227 3,500 -667 Descending Jacksonville Center
Fri 09:39:41 AM 29.4511 -82.3297 329° Northwest 188 216 3,100 -197 Descending Jacksonville Center
Fri 09:40:42 AM 29.4867 -82.3511 332° Northwest 132 152 3,100 49 Level Jacksonville Center
Fri 09:41:43 AM 29.5161 -82.3794 320° Northwest 129 148 3,200 49 Climbing Jacksonville Center
Fri 09:42:44 AM 29.5517 -82.3983 335° Northwest 144 166 3,200  Level Jacksonville Center
Fri 09:43:45 AM 29.5933 -82.4078 349° North 145 167 3,200  Level Jacksonville Center
Fri 09:44:46 AM 29.6331 -82.4172 348° North 143 165 3,200 -308 Level Jacksonville Center
Fri 09:45:42 AM 29.6686 -82.4169 360° North 138 159 2,600 -615 Descending Jacksonville Center
Fri 09:46:43 AM 29.6872 -82.3881 53° Northeast 105 121 2,000 -541 Descending Jacksonville Center
Fri 09:47:44 AM 29.6975 -82.3594 68° East 102 117 1,500 -469 Descending Jacksonville Center
Fri 09:48:51 AM 29.6975 -82.3258 90° East 89 102 1,000 -448 Descending Jacksonville Center

Login

Don't have an account? Register now (free) for customized features, flight alerts, and more!